createdAt,value
2022-11-18T00:00:23.671Z,91.52
2022-11-18T00:01:25.950Z,92.03
2022-11-18T00:02:27.901Z,91.63
2022-11-18T00:03:29.863Z,92.05
2022-11-18T00:04:31.697Z,91.88
2022-11-18T00:05:33.524Z,91.95
2022-11-18T00:06:35.544Z,91.34
2022-11-18T00:07:37.342Z,91.47
2022-11-18T00:08:39.273Z,91.53
2022-11-18T00:09:41.135Z,91.28
2022-11-18T00:10:42.960Z,90.64
2022-11-18T00:12:03.424Z,91.28
2022-11-18T00:13:23.643Z,91.05
2022-11-18T00:14:27.685Z,91.84
2022-11-18T00:15:31.837Z,91.42
2022-11-18T00:16:33.984Z,91.41
2022-11-18T00:17:35.793Z,92.31
2022-11-18T00:18:38.348Z,92.28
2022-11-18T00:19:40.543Z,92.41
2022-11-18T00:20:42.345Z,92.17
2022-11-18T00:21:44.200Z,92.59
2022-11-18T00:22:46.618Z,91.50
2022-11-18T00:23:49.074Z,92.24
2022-11-18T00:24:50.977Z,92.19
2022-11-18T00:25:52.769Z,91.67
2022-11-18T00:26:54.936Z,92.05
2022-11-18T00:27:56.821Z,92.13
2022-11-18T00:28:58.660Z,91.55
2022-11-18T00:30:00.564Z,91.72
2022-11-18T00:31:07.100Z,91.81
2022-11-18T00:32:08.881Z,91.66
2022-11-18T00:33:10.716Z,91.89
2022-11-18T00:34:13.998Z,91.69
2022-11-18T00:35:15.921Z,91.89
2022-11-18T00:36:17.808Z,92.16
2022-11-18T00:37:19.609Z,91.93
2022-11-18T00:38:21.484Z,92.06
2022-11-18T00:39:23.404Z,92.42
2022-11-18T00:40:26.347Z,91.78
2022-11-18T00:41:48.045Z,92.06
2022-11-18T00:42:52.452Z,91.37
2022-11-18T00:43:54.257Z,92.12
2022-11-18T00:44:56.220Z,91.82
2022-11-18T00:45:58.387Z,91.71
2022-11-18T00:47:00.396Z,92.19
2022-11-18T00:48:03.198Z,92.12
2022-11-18T00:49:05.107Z,91.39
2022-11-18T00:50:07.144Z,92.12
2022-11-18T00:51:13.830Z,92.44
2022-11-18T00:52:15.689Z,92.32
2022-11-18T00:53:18.110Z,92.22
2022-11-18T00:54:19.990Z,92.76
2022-11-18T00:55:22.978Z,92.64
2022-11-18T00:56:24.790Z,92.56
2022-11-18T00:57:26.593Z,91.87
2022-11-18T00:58:28.452Z,92.10
2022-11-18T00:59:30.284Z,91.89
2022-11-18T01:00:32.326Z,91.75
2022-11-18T01:01:34.309Z,91.99
2022-11-18T01:02:36.256Z,91.67
2022-11-18T01:03:38.046Z,91.99
2022-11-18T01:04:39.876Z,92.32
2022-11-18T01:05:42.089Z,92.60
2022-11-18T01:06:43.922Z,93.02
2022-11-18T01:07:46.498Z,93.58
2022-11-18T01:08:48.387Z,93.99
2022-11-18T01:09:50.215Z,95.12
2022-11-18T01:10:52.829Z,94.17
2022-11-18T01:12:13.077Z,94.87
2022-11-18T01:13:19.589Z,94.95
2022-11-18T01:14:21.295Z,93.93
2022-11-18T01:15:23.096Z,94.04
2022-11-18T01:16:26.327Z,94.09
2022-11-18T01:17:30.363Z,93.80
2022-11-18T01:18:32.203Z,93.90
2022-11-18T01:19:34.008Z,93.69
2022-11-18T01:20:36.013Z,94.79
2022-11-18T01:21:37.809Z,94.01
2022-11-18T01:22:39.671Z,94.41
2022-11-18T01:23:41.490Z,94.63
2022-11-18T01:24:43.293Z,95.16
2022-11-18T01:25:45.978Z,94.10
2022-11-18T01:26:47.790Z,95.04
2022-11-18T01:27:49.670Z,94.02
2022-11-18T01:28:55.263Z,94.16
2022-11-18T01:29:57.054Z,94.03
2022-11-18T01:31:05.862Z,94.40
2022-11-18T01:32:24.912Z,93.84
2022-11-18T01:33:27.487Z,94.32
2022-11-18T01:34:29.679Z,93.42
2022-11-18T01:35:35.537Z,93.37
2022-11-18T01:36:37.358Z,93.81
2022-11-18T01:37:39.182Z,93.59
2022-11-18T01:38:41.080Z,93.92
2022-11-18T01:39:42.973Z,93.04
2022-11-18T01:40:44.782Z,94.04
2022-11-18T01:41:46.578Z,93.82
2022-11-18T01:42:48.348Z,93.14
2022-11-18T01:43:54.999Z,93.15
2022-11-18T01:44:59.786Z,93.56
2022-11-18T01:46:01.643Z,93.72
2022-11-18T01:47:03.459Z,93.70
2022-11-18T01:48:08.970Z,94.89
2022-11-18T01:49:12.493Z,95.07
2022-11-18T01:50:15.830Z,95.16
2022-11-18T01:51:20.303Z,95.13
2022-11-18T01:52:23.317Z,94.96
2022-11-18T01:53:27.699Z,95.07
2022-11-18T01:54:35.811Z,94.85
2022-11-18T01:55:41.825Z,95.09
2022-11-18T01:56:45.315Z,94.73
2022-11-18T01:57:48.290Z,93.64
2022-11-18T01:58:52.352Z,93.84
2022-11-18T01:59:55.432Z,94.57
2022-11-18T02:00:57.381Z,94.45
2022-11-18T02:02:00.538Z,93.44
2022-11-18T02:03:03.384Z,94.13
2022-11-18T02:04:05.813Z,93.52
2022-11-18T02:05:08.977Z,93.59
2022-11-18T02:06:11.620Z,93.57
2022-11-18T02:07:13.861Z,94.00
2022-11-18T02:08:17.837Z,93.18
2022-11-18T02:09:19.827Z,93.82
2022-11-18T02:10:23.126Z,93.34
2022-11-18T02:11:43.662Z,93.55
2022-11-18T02:12:45.479Z,93.24
2022-11-18T02:13:47.273Z,93.43
2022-11-18T02:14:49.531Z,94.29
2022-11-18T02:15:51.253Z,93.54
2022-11-18T02:16:55.839Z,93.68
2022-11-18T02:18:03.584Z,93.55
2022-11-18T02:19:12.766Z,93.54
2022-11-18T02:20:17.273Z,93.08
2022-11-18T02:21:28.680Z,92.81
2022-11-18T02:22:36.489Z,93.66
2022-11-18T02:23:47.488Z,93.85
2022-11-18T02:24:49.214Z,94.12
2022-11-18T02:25:51.040Z,93.70
2022-11-18T02:27:11.458Z,93.41
2022-11-18T02:28:25.141Z,93.54
2022-11-18T02:29:39.099Z,93.10
2022-11-18T02:30:53.974Z,93.69
2022-11-18T02:31:59.650Z,94.17
2022-11-18T02:33:07.307Z,94.05
2022-11-18T02:34:18.874Z,94.56
2022-11-18T02:35:26.877Z,94.39
2022-11-18T02:36:37.709Z,94.64
2022-11-18T02:37:44.123Z,94.62
2022-11-18T02:38:48.844Z,94.60
2022-11-18T02:40:10.833Z,94.67
2022-11-18T02:41:18.590Z,94.60
2022-11-18T02:42:21.592Z,94.71
2022-11-18T02:43:30.139Z,94.04
2022-11-18T02:44:32.119Z,94.80
2022-11-18T02:45:35.370Z,94.29
2022-11-18T02:46:39.584Z,94.04
2022-11-18T02:47:43.538Z,94.46
2022-11-18T02:48:48.274Z,93.58
2022-11-18T02:49:54.352Z,94.05
2022-11-18T02:50:57.276Z,94.10
2022-11-18T02:52:00.935Z,93.50
2022-11-18T02:53:04.522Z,93.55
2022-11-18T02:54:08.327Z,94.07
2022-11-18T02:55:12.923Z,94.33
2022-11-18T02:56:16.259Z,93.81
2022-11-18T02:57:19.661Z,94.09
2022-11-18T02:58:21.992Z,94.77
2022-11-18T02:59:23.905Z,94.72
2022-11-18T03:00:25.850Z,94.41
2022-11-18T03:01:29.219Z,95.05
2022-11-18T03:02:49.154Z,94.42
2022-11-18T03:03:51.073Z,94.32
2022-11-18T03:04:56.332Z,94.27
2022-11-18T03:06:16.382Z,93.11
2022-11-18T03:07:21.319Z,93.87
2022-11-18T03:08:26.390Z,92.77
2022-11-18T03:09:30.197Z,93.19
2022-11-18T03:10:36.129Z,93.20
2022-11-18T03:11:49.014Z,93.35
2022-11-18T03:13:05.623Z,93.65
2022-11-18T03:14:25.535Z,93.97
2022-11-18T03:15:38.162Z,93.84
2022-11-18T03:16:45.112Z,93.59
2022-11-18T03:18:01.541Z,92.79
2022-11-18T03:19:15.794Z,93.01
2022-11-18T03:20:20.774Z,93.16
2022-11-18T03:21:35.976Z,93.05
2022-11-18T03:22:41.434Z,92.72
2022-11-18T03:23:55.273Z,93.31
2022-11-18T03:25:04.507Z,93.37
2022-11-18T03:26:10.138Z,93.23
2022-11-18T03:27:24.382Z,92.69
2022-11-18T03:28:44.714Z,92.80
2022-11-18T03:29:52.198Z,92.44
2022-11-18T03:31:17.053Z,92.92
2022-11-18T03:32:21.862Z,92.92
2022-11-18T03:33:26.753Z,93.01
2022-11-18T03:34:37.994Z,91.94
2022-11-18T03:35:42.202Z,92.72
2022-11-18T03:36:52.105Z,92.22
2022-11-18T03:37:57.280Z,91.88
2022-11-18T03:39:01.052Z,92.35
2022-11-18T03:40:16.211Z,92.31
2022-11-18T03:41:19.238Z,92.13
2022-11-18T03:42:34.005Z,92.00
2022-11-18T03:43:39.439Z,91.98
2022-11-18T03:44:47.082Z,91.69
2022-11-18T03:45:58.322Z,91.43
2022-11-18T03:47:07.021Z,91.67
2022-11-18T03:48:15.220Z,91.25
2022-11-18T03:49:27.347Z,91.58
2022-11-18T03:50:38.498Z,91.82
2022-11-18T03:51:42.485Z,91.89
2022-11-18T03:52:45.061Z,91.48
2022-11-18T03:53:53.141Z,91.85
2022-11-18T03:54:57.463Z,92.20
2022-11-18T03:56:02.488Z,91.69
2022-11-18T03:57:09.729Z,91.39
2022-11-18T03:58:34.865Z,91.82
2022-11-18T03:59:40.429Z,92.19
2022-11-18T04:00:44.348Z,91.80
2022-11-18T04:01:53.801Z,92.39
2022-11-18T04:02:55.850Z,92.48
2022-11-18T04:03:57.794Z,92.78
2022-11-18T04:05:01.057Z,92.55
2022-11-18T04:06:14.310Z,93.02
2022-11-18T04:07:32.894Z,92.70
2022-11-18T04:08:37.129Z,92.16
2022-11-18T04:09:44.442Z,92.77
2022-11-18T04:10:48.354Z,92.41
2022-11-18T04:12:05.627Z,92.17
2022-11-18T04:13:09.930Z,92.52
2022-11-18T04:14:13.450Z,92.11
2022-11-18T04:15:16.098Z,92.15
2022-11-18T04:16:17.913Z,92.26
2022-11-18T04:17:24.655Z,92.01
2022-11-18T04:18:26.762Z,92.20
2022-11-18T04:19:28.602Z,91.79
2022-11-18T04:20:32.045Z,91.75
2022-11-18T04:21:33.956Z,92.19
2022-11-18T04:22:35.731Z,91.68
2022-11-18T04:23:37.535Z,91.49
2022-11-18T04:24:39.903Z,91.85
2022-11-18T04:25:41.755Z,90.87
2022-11-18T04:26:43.774Z,91.07
2022-11-18T04:27:45.566Z,90.93
2022-11-18T04:28:47.375Z,90.96
2022-11-18T04:29:49.430Z,91.12
2022-11-18T04:30:51.231Z,91.07
2022-11-18T04:31:53.019Z,91.20
2022-11-18T04:32:54.902Z,90.94
2022-11-18T04:33:56.761Z,90.56
2022-11-18T04:34:58.644Z,90.29
2022-11-18T04:36:00.475Z,90.50
2022-11-18T04:37:02.447Z,90.52
2022-11-18T04:38:05.114Z,90.67
2022-11-18T04:39:07.252Z,90.21
2022-11-18T04:40:09.665Z,90.77
2022-11-18T04:41:11.446Z,90.50
2022-11-18T04:42:13.278Z,90.44
2022-11-18T04:43:15.086Z,90.71
2022-11-18T04:44:17.044Z,89.93
2022-11-18T04:45:19.008Z,90.15
2022-11-18T04:46:20.896Z,90.71
2022-11-18T04:47:22.739Z,90.03
2022-11-18T04:48:24.582Z,90.06
2022-11-18T04:49:27.228Z,89.78
2022-11-18T04:50:29.097Z,89.97
2022-11-18T04:51:30.908Z,90.16
2022-11-18T04:52:32.764Z,90.31
2022-11-18T04:53:34.616Z,89.99
2022-11-18T04:54:36.431Z,89.91
2022-11-18T04:55:38.338Z,89.64
2022-11-18T04:56:45.652Z,90.04
2022-11-18T04:57:50.499Z,90.47
2022-11-18T04:58:52.560Z,89.90
2022-11-18T04:59:54.470Z,90.24
2022-11-18T05:00:56.338Z,89.96
2022-11-18T05:01:59.769Z,90.14
2022-11-18T05:03:01.573Z,89.78
2022-11-18T05:04:04.657Z,89.57
2022-11-18T05:05:06.725Z,90.20
2022-11-18T05:06:08.610Z,89.68
2022-11-18T05:07:14.057Z,89.57
2022-11-18T05:08:15.854Z,89.43
2022-11-18T05:09:18.275Z,90.01
2022-11-18T05:10:20.382Z,89.43
2022-11-18T05:11:40.861Z,89.51
2022-11-18T05:12:52.834Z,90.17
2022-11-18T05:13:54.640Z,90.15
2022-11-18T05:14:56.529Z,89.65
2022-11-18T05:16:01.178Z,89.39
2022-11-18T05:17:04.692Z,90.07
2022-11-18T05:18:06.536Z,90.10
2022-11-18T05:19:08.785Z,89.56
2022-11-18T05:20:11.300Z,90.83
2022-11-18T05:21:13.106Z,90.53
2022-11-18T05:22:15.280Z,89.88
2022-11-18T05:23:17.030Z,90.65
2022-11-18T05:24:18.988Z,89.96
2022-11-18T05:25:20.785Z,89.86
2022-11-18T05:26:22.659Z,89.98
2022-11-18T05:27:24.630Z,90.28
2022-11-18T05:28:26.968Z,90.58
2022-11-18T05:29:28.863Z,89.99
2022-11-18T05:30:30.678Z,90.22
2022-11-18T05:31:32.992Z,90.23
2022-11-18T05:32:34.836Z,89.68
2022-11-18T05:33:36.859Z,89.48
2022-11-18T05:34:39.878Z,89.84
2022-11-18T05:35:41.639Z,89.62
2022-11-18T05:36:43.490Z,89.80
2022-11-18T05:37:45.368Z,88.96
2022-11-18T05:38:47.224Z,89.87
2022-11-18T05:39:49.049Z,89.48
2022-11-18T05:40:50.891Z,89.98
2022-11-18T05:42:11.381Z,89.62
2022-11-18T05:43:13.270Z,89.68
2022-11-18T05:44:15.378Z,89.53
2022-11-18T05:45:19.717Z,89.79
2022-11-18T05:46:21.632Z,89.54
2022-11-18T05:47:25.324Z,90.15
2022-11-18T05:48:27.379Z,89.68
2022-11-18T05:49:29.236Z,89.99
2022-11-18T05:50:32.288Z,90.56
2022-11-18T05:51:34.560Z,90.32
2022-11-18T05:52:36.352Z,90.13
2022-11-18T05:53:38.166Z,90.18
2022-11-18T05:54:42.713Z,89.93
2022-11-18T05:56:03.161Z,90.32
2022-11-18T05:57:04.950Z,90.43
2022-11-18T05:58:06.709Z,89.33
2022-11-18T05:59:08.750Z,89.64
2022-11-18T06:00:11.098Z,90.24
2022-11-18T06:01:14.845Z,89.69
2022-11-18T06:02:19.434Z,90.04
2022-11-18T06:03:30.731Z,90.13
2022-11-18T06:04:35.125Z,90.36
2022-11-18T06:05:37.185Z,90.33
2022-11-18T06:06:39.300Z,90.19
2022-11-18T06:07:45.227Z,89.73
2022-11-18T06:08:49.828Z,90.82
2022-11-18T06:09:55.153Z,90.57
2022-11-18T06:10:57.000Z,90.13
2022-11-18T06:12:00.763Z,89.81
2022-11-18T06:13:06.469Z,90.56
2022-11-18T06:14:11.513Z,90.54
2022-11-18T06:15:19.015Z,90.27
2022-11-18T06:16:24.243Z,90.24
2022-11-18T06:17:28.821Z,89.48
2022-11-18T06:18:31.963Z,89.62
2022-11-18T06:19:34.330Z,89.70
2022-11-18T06:20:38.511Z,89.66
2022-11-18T06:21:40.317Z,89.86
2022-11-18T06:22:46.261Z,89.96
2022-11-18T06:23:48.745Z,89.71
2022-11-18T06:24:50.701Z,89.91
2022-11-18T06:25:52.532Z,89.93
2022-11-18T06:26:54.376Z,89.86
2022-11-18T06:27:57.898Z,89.57
2022-11-18T06:28:59.881Z,89.75
2022-11-18T06:30:01.780Z,88.75
2022-11-18T06:31:03.587Z,89.44
2022-11-18T06:32:05.473Z,89.82
2022-11-18T06:33:07.576Z,89.11
2022-11-18T06:34:09.430Z,89.18
2022-11-18T06:35:11.258Z,89.24
2022-11-18T06:36:13.088Z,89.77
2022-11-18T06:37:14.919Z,89.39
2022-11-18T06:38:16.986Z,88.83
2022-11-18T06:39:19.115Z,88.79
2022-11-18T06:40:21.403Z,89.13
2022-11-18T06:41:23.216Z,88.74
2022-11-18T06:42:43.649Z,88.68
2022-11-18T06:43:45.614Z,89.25
2022-11-18T06:44:47.626Z,89.19
2022-11-18T06:46:09.626Z,88.58
2022-11-18T06:47:11.477Z,88.84
2022-11-18T06:48:13.218Z,88.81
2022-11-18T06:49:15.244Z,88.06
2022-11-18T06:50:17.411Z,88.68
2022-11-18T06:51:19.260Z,88.07
2022-11-18T06:52:22.266Z,88.83
2022-11-18T06:53:24.526Z,88.17
2022-11-18T06:54:26.379Z,88.14
2022-11-18T06:55:28.176Z,88.26
2022-11-18T06:56:29.986Z,88.53
2022-11-18T06:57:31.807Z,88.17
2022-11-18T06:58:33.706Z,88.31
2022-11-18T06:59:35.580Z,88.87
2022-11-18T07:00:37.479Z,89.09
2022-11-18T07:01:41.837Z,88.98
2022-11-18T07:02:43.611Z,88.95
2022-11-18T07:03:46.310Z,88.18
2022-11-18T07:04:48.225Z,88.79
2022-11-18T07:05:50.092Z,88.10
2022-11-18T07:06:52.025Z,89.07
2022-11-18T07:07:53.905Z,89.04
2022-11-18T07:08:56.363Z,89.04
2022-11-18T07:09:58.190Z,89.05
2022-11-18T07:10:59.932Z,89.57
2022-11-18T07:12:01.784Z,89.14
2022-11-18T07:13:03.587Z,88.87
2022-11-18T07:14:05.453Z,89.43
2022-11-18T07:15:07.602Z,89.32
2022-11-18T07:16:11.270Z,89.21
2022-11-18T07:17:13.141Z,88.75
2022-11-18T07:18:14.960Z,88.36
2022-11-18T07:19:17.023Z,88.40
2022-11-18T07:20:19.231Z,88.75
2022-11-18T07:21:22.376Z,88.23
2022-11-18T07:22:24.320Z,88.72
2022-11-18T07:23:26.155Z,88.13
2022-11-18T07:24:27.959Z,88.51
2022-11-18T07:25:29.851Z,88.71
2022-11-18T07:26:31.630Z,88.99
2022-11-18T07:27:33.493Z,88.64
2022-11-18T07:28:35.322Z,88.38
2022-11-18T07:29:37.136Z,88.82
2022-11-18T07:30:39.229Z,88.79
2022-11-18T07:31:41.165Z,88.47
2022-11-18T07:32:42.976Z,89.19
2022-11-18T07:33:45.257Z,89.32
2022-11-18T07:34:47.138Z,89.04
2022-11-18T07:35:49.105Z,88.84
2022-11-18T07:36:50.862Z,89.25
2022-11-18T07:37:52.717Z,88.39
2022-11-18T07:38:55.268Z,89.16
2022-11-18T07:40:00.130Z,89.01
2022-11-18T07:41:06.287Z,88.48
2022-11-18T07:42:09.543Z,88.65
2022-11-18T07:43:11.257Z,88.65
2022-11-18T07:44:13.189Z,88.96
2022-11-18T07:45:15.096Z,89.19
2022-11-18T07:46:19.715Z,89.06
2022-11-18T07:47:21.976Z,88.84
2022-11-18T07:48:23.755Z,88.67
2022-11-18T07:49:25.670Z,89.02
2022-11-18T07:50:27.576Z,89.58
2022-11-18T07:51:30.861Z,89.63
2022-11-18T07:52:32.678Z,89.70
2022-11-18T07:53:34.764Z,89.81
2022-11-18T07:54:36.602Z,89.96
2022-11-18T07:55:38.371Z,90.05
2022-11-18T07:56:40.405Z,90.01
2022-11-18T07:57:42.270Z,90.43
2022-11-18T07:58:44.342Z,90.47
2022-11-18T07:59:46.172Z,90.12
2022-11-18T08:00:48.066Z,90.68
2022-11-18T08:01:50.138Z,90.02
2022-11-18T08:02:52.022Z,90.48
2022-11-18T08:03:53.857Z,90.43
2022-11-18T08:04:55.653Z,89.96
2022-11-18T08:06:01.406Z,90.39
2022-11-18T08:07:03.329Z,91.10
2022-11-18T08:08:05.262Z,91.21
2022-11-18T08:09:07.691Z,91.48
2022-11-18T08:10:09.760Z,91.70
2022-11-18T08:11:16.243Z,91.91
2022-11-18T08:12:22.388Z,91.11
2022-11-18T08:13:24.803Z,91.78
2022-11-18T08:14:27.328Z,92.01
2022-11-18T08:15:29.114Z,92.00
2022-11-18T08:16:30.936Z,91.62
2022-11-18T08:17:33.104Z,91.91
2022-11-18T08:18:34.911Z,92.21
2022-11-18T08:19:36.723Z,91.67
2022-11-18T08:20:38.519Z,91.47
2022-11-18T08:21:40.363Z,91.61
2022-11-18T08:22:42.238Z,92.38
2022-11-18T08:23:44.023Z,92.43
2022-11-18T08:24:45.886Z,92.82
2022-11-18T08:25:47.789Z,92.19
2022-11-18T08:26:49.593Z,92.84
2022-11-18T08:27:51.524Z,92.99
2022-11-18T08:28:53.755Z,93.12
2022-11-18T08:29:55.707Z,92.96
2022-11-18T08:30:57.525Z,93.30
2022-11-18T08:31:59.316Z,93.13
2022-11-18T08:33:01.446Z,93.70
2022-11-18T08:34:04.898Z,93.04
2022-11-18T08:35:11.076Z,93.64
2022-11-18T08:36:15.644Z,93.01
2022-11-18T08:37:17.684Z,93.30
2022-11-18T08:38:19.651Z,92.81
2022-11-18T08:39:21.539Z,92.72
2022-11-18T08:40:23.561Z,93.09
2022-11-18T08:41:31.272Z,92.46
2022-11-18T08:42:34.460Z,93.13
2022-11-18T08:43:37.109Z,92.76
2022-11-18T08:44:39.093Z,92.75
2022-11-18T08:45:41.391Z,93.16
2022-11-18T08:46:45.834Z,92.69
2022-11-18T08:47:47.734Z,92.45
2022-11-18T08:48:49.724Z,92.32
2022-11-18T08:49:51.507Z,92.29
2022-11-18T08:50:53.452Z,92.90
2022-11-18T08:51:55.481Z,92.56
2022-11-18T08:52:57.326Z,92.54
2022-11-18T08:53:59.357Z,92.24
2022-11-18T08:55:01.772Z,92.65
2022-11-18T08:56:03.583Z,92.27
2022-11-18T08:57:05.405Z,92.23
2022-11-18T08:58:07.235Z,92.39
2022-11-18T08:59:09.370Z,92.01
2022-11-18T09:00:11.791Z,92.92
2022-11-18T09:01:13.615Z,92.98
2022-11-18T09:02:19.506Z,92.56
2022-11-18T09:03:21.561Z,92.72
2022-11-18T09:04:23.347Z,92.43
2022-11-18T09:05:25.143Z,92.29
2022-11-18T09:06:27.211Z,93.02
2022-11-18T09:07:29.210Z,92.30
2022-11-18T09:08:31.137Z,92.75
2022-11-18T09:09:33.039Z,93.07
2022-11-18T09:10:34.853Z,93.08
2022-11-18T09:11:38.346Z,92.96
2022-11-18T09:12:40.171Z,92.40
2022-11-18T09:15:19.949Z,92.84
2022-11-18T09:16:27.863Z,92.85
2022-11-18T09:17:30.127Z,92.45
2022-11-18T09:18:32.052Z,93.13
2022-11-18T09:19:47.276Z,93.08
2022-11-18T09:21:16.337Z,92.42
2022-11-18T09:22:18.213Z,93.13
2022-11-18T09:23:19.996Z,93.36
2022-11-18T09:24:21.809Z,93.52
2022-11-18T09:25:23.655Z,92.80
2022-11-18T09:26:25.658Z,93.01
2022-11-18T09:27:27.582Z,93.55
2022-11-18T09:28:29.513Z,93.54
2022-11-18T09:29:31.638Z,92.83
2022-11-18T09:30:33.478Z,93.19
2022-11-18T09:31:35.356Z,92.96
2022-11-18T09:32:37.165Z,92.63
2022-11-18T09:33:39.735Z,92.74
2022-11-18T09:34:41.607Z,92.54
2022-11-18T09:35:43.954Z,93.07
2022-11-18T09:36:46.419Z,92.54
2022-11-18T09:37:48.244Z,92.44
2022-11-18T09:38:53.195Z,92.88
2022-11-18T09:39:55.380Z,92.55
2022-11-18T09:40:57.187Z,92.67
2022-11-18T09:42:04.914Z,93.05
2022-11-18T09:43:29.709Z,92.47
2022-11-18T09:44:41.402Z,92.82
2022-11-18T09:45:46.175Z,93.00
2022-11-18T09:46:53.930Z,93.73
2022-11-18T09:47:57.406Z,93.66
2022-11-18T09:49:14.801Z,93.33
2022-11-18T09:50:47.787Z,93.40
2022-11-18T09:51:42.020Z,93.87
2022-11-18T09:52:43.754Z,93.41
2022-11-18T09:53:46.273Z,94.20
2022-11-18T09:54:48.182Z,94.12
2022-11-18T09:55:51.636Z,94.63
2022-11-18T09:56:55.546Z,94.98
2022-11-18T09:57:59.176Z,94.95
2022-11-18T09:59:01.295Z,94.78
2022-11-18T10:00:06.658Z,94.48
2022-11-18T10:01:18.332Z,95.08
2022-11-18T10:02:26.770Z,95.06
2022-11-18T10:03:30.129Z,94.96
2022-11-18T10:04:32.009Z,94.85
2022-11-18T10:05:48.521Z,94.81
2022-11-18T10:06:51.255Z,94.56
2022-11-18T10:08:11.178Z,94.51
2022-11-18T10:09:18.789Z,94.30
2022-11-18T10:10:25.832Z,94.34
2022-11-18T10:11:40.103Z,94.46
2022-11-18T10:12:49.953Z,94.64
2022-11-18T10:14:14.870Z,94.62
2022-11-18T10:15:21.315Z,94.48
2022-11-18T10:16:42.536Z,94.25
2022-11-18T10:17:44.687Z,94.05
2022-11-18T10:19:15.624Z,94.43
2022-11-18T10:20:36.123Z,93.94
2022-11-18T10:21:48.186Z,94.34
2022-11-18T10:22:57.159Z,93.78
2022-11-18T10:24:01.148Z,94.18
2022-11-18T10:25:02.953Z,93.36
2022-11-18T10:26:04.873Z,93.88
2022-11-18T10:27:10.889Z,93.87
2022-11-18T10:28:33.016Z,93.75
2022-11-18T10:29:34.836Z,94.11
2022-11-18T10:30:36.664Z,94.22
2022-11-18T10:31:52.948Z,93.72
2022-11-18T10:33:00.093Z,94.15
2022-11-18T10:34:02.465Z,94.37
2022-11-18T10:35:04.421Z,94.36
2022-11-18T10:36:09.283Z,94.24
2022-11-18T10:37:34.471Z,93.71
2022-11-18T10:38:49.743Z,94.52
2022-11-18T10:39:53.442Z,93.88
2022-11-18T10:41:13.613Z,94.15
2022-11-18T10:42:25.804Z,93.86
2022-11-18T10:43:49.239Z,94.35
2022-11-18T10:44:51.259Z,94.56
2022-11-18T10:45:53.007Z,94.56
2022-11-18T10:46:54.861Z,94.42
2022-11-18T10:47:59.426Z,94.14
2022-11-18T10:49:10.387Z,94.45
2022-11-18T10:50:35.608Z,93.96
2022-11-18T10:51:42.047Z,94.26
2022-11-18T10:52:52.327Z,93.56
2022-11-18T10:54:07.250Z,93.84
2022-11-18T10:55:19.203Z,94.16
2022-11-18T10:56:21.212Z,94.13
2022-11-18T10:57:25.056Z,94.17
2022-11-18T10:58:27.671Z,94.22
2022-11-18T10:59:31.989Z,94.77
2022-11-18T11:00:39.503Z,94.91
2022-11-18T11:01:41.306Z,94.03
2022-11-18T11:02:43.183Z,94.42
2022-11-18T11:03:55.155Z,94.09
2022-11-18T11:04:57.793Z,93.88
2022-11-18T11:06:18.536Z,94.28
2022-11-18T11:07:32.715Z,94.44
2022-11-18T11:08:37.640Z,94.19
2022-11-18T11:09:39.926Z,94.71
2022-11-18T11:10:41.669Z,94.21
2022-11-18T11:11:56.113Z,94.50
2022-11-18T11:13:00.724Z,94.31
2022-11-18T11:14:07.795Z,94.51
2022-11-18T11:15:11.988Z,94.37
2022-11-18T11:16:14.240Z,94.44
2022-11-18T11:17:19.379Z,95.00
2022-11-18T11:18:41.859Z,94.51
2022-11-18T11:19:59.362Z,95.03
2022-11-18T11:21:01.192Z,94.38
2022-11-18T11:22:03.109Z,95.27
2022-11-18T11:23:09.382Z,94.68
2022-11-18T11:24:13.152Z,94.17
2022-11-18T11:28:20.059Z,94.81
2022-11-18T11:29:27.931Z,94.55
2022-11-18T11:30:35.616Z,94.25
2022-11-18T11:31:49.893Z,94.97
2022-11-18T11:33:11.584Z,94.29
2022-11-18T11:34:31.885Z,94.54
2022-11-18T11:35:39.051Z,94.93
2022-11-18T11:36:53.246Z,94.85
2022-11-18T11:38:07.036Z,94.64
2022-11-18T11:39:17.987Z,95.42
2022-11-18T11:40:30.182Z,95.12
2022-11-18T11:41:49.927Z,94.25
2022-11-18T11:42:54.981Z,94.23
2022-11-18T11:44:15.602Z,94.35
2022-11-18T11:45:25.834Z,94.55
2022-11-18T11:46:36.905Z,94.75
2022-11-18T11:47:50.947Z,94.99
2022-11-18T11:49:01.875Z,94.71
2022-11-18T11:50:06.649Z,95.02
2022-11-18T11:51:27.264Z,94.50
2022-11-18T11:52:42.122Z,94.88
2022-11-18T11:53:56.270Z,94.80
2022-11-18T11:55:10.317Z,95.35
2022-11-18T11:56:19.625Z,95.50
2022-11-18T11:57:24.070Z,95.36
2022-11-18T11:58:44.286Z,95.51
2022-11-18T11:59:49.054Z,95.59
2022-11-18T12:00:58.489Z,95.04
2022-11-18T12:02:18.767Z,95.20
2022-11-18T12:03:37.282Z,95.36
2022-11-18T12:04:59.374Z,95.31
2022-11-18T12:06:01.259Z,95.36
2022-11-18T12:07:03.689Z,95.39
2022-11-18T12:08:16.992Z,95.60
2022-11-18T12:09:34.132Z,95.43
2022-11-18T12:10:45.303Z,95.75
2022-11-18T12:11:51.807Z,96.01
2022-11-18T12:13:11.627Z,95.86
2022-11-18T12:14:20.975Z,95.33
2022-11-18T12:15:38.113Z,95.17
2022-11-18T12:17:00.317Z,94.92
2022-11-18T12:18:17.510Z,95.42
2022-11-18T12:19:20.960Z,95.57
2022-11-18T12:20:40.831Z,95.57
2022-11-18T12:21:42.571Z,95.57
2022-11-18T12:23:03.271Z,95.79
2022-11-18T12:24:20.950Z,96.92
2022-11-18T12:25:41.302Z,96.76
2022-11-18T12:26:44.035Z,97.43
2022-11-18T12:27:45.921Z,96.89
2022-11-18T12:28:49.621Z,97.12
2022-11-18T12:29:51.403Z,96.69
2022-11-18T12:31:16.311Z,95.98
2022-11-18T12:32:36.814Z,95.88
2022-11-18T12:33:55.488Z,96.36
2022-11-18T12:35:23.421Z,96.35
2022-11-18T12:36:30.379Z,96.07
2022-11-18T12:37:32.104Z,96.46
2022-11-18T12:38:33.846Z,96.49
2022-11-18T12:39:41.587Z,96.42
2022-11-18T12:40:52.562Z,96.46
2022-11-18T12:42:20.456Z,96.47
2022-11-18T12:43:49.748Z,96.52
2022-11-18T12:44:52.917Z,96.10
2022-11-18T12:45:55.544Z,96.18
2022-11-18T12:46:58.146Z,96.46
2022-11-18T12:48:00.034Z,96.20
2022-11-18T12:49:20.622Z,95.84
2022-11-18T12:50:42.446Z,95.86
2022-11-18T12:51:44.672Z,95.86
2022-11-18T12:52:47.281Z,95.59
2022-11-18T12:53:49.872Z,95.79
2022-11-18T12:54:51.970Z,96.01
2022-11-18T12:55:53.717Z,96.50
2022-11-18T12:56:58.057Z,96.40
2022-11-18T12:57:59.982Z,97.02
2022-11-18T12:59:02.436Z,97.11
2022-11-18T13:00:17.340Z,97.66
2022-11-18T13:01:21.022Z,97.63
2022-11-18T13:02:27.470Z,97.61
2022-11-18T13:03:29.312Z,97.38
2022-11-18T13:04:31.196Z,96.90
2022-11-18T13:05:33.906Z,97.16
2022-11-18T13:06:38.365Z,97.39
2022-11-18T13:08:02.206Z,97.23
2022-11-18T13:09:15.888Z,96.96
2022-11-18T13:10:23.059Z,96.34
2022-11-18T13:11:44.430Z,96.54
2022-11-18T13:12:46.324Z,96.39
2022-11-18T13:14:11.037Z,96.25
2022-11-18T13:15:31.153Z,96.20
2022-11-18T13:16:52.592Z,95.98
2022-11-18T13:18:05.541Z,95.87
2022-11-18T13:19:07.369Z,95.34
2022-11-18T13:20:22.945Z,94.95
2022-11-18T13:21:45.384Z,95.12
2022-11-18T13:23:28.726Z,95.09
2022-11-18T13:24:30.638Z,95.17
2022-11-18T13:25:32.477Z,95.26
2022-11-18T13:26:35.087Z,95.30
2022-11-18T13:27:39.919Z,95.40
2022-11-18T13:28:53.946Z,94.84
2022-11-18T13:30:03.659Z,93.74
2022-11-18T13:31:05.431Z,94.08
2022-11-18T13:32:08.703Z,94.06
2022-11-18T13:33:11.872Z,94.17
2022-11-18T13:34:21.148Z,94.34
2022-11-18T13:35:24.652Z,94.15
2022-11-18T13:36:26.725Z,94.11
2022-11-18T13:37:32.354Z,94.43
2022-11-18T13:38:34.978Z,94.41
2022-11-18T13:39:43.489Z,94.94
2022-11-18T13:41:04.928Z,94.89
2022-11-18T13:42:14.303Z,94.79
2022-11-18T13:43:25.763Z,94.96
2022-11-18T13:44:29.358Z,94.91
2022-11-18T13:45:32.741Z,94.55
2022-11-18T13:46:34.608Z,94.87
2022-11-18T13:47:49.083Z,94.32
2022-11-18T13:48:56.134Z,94.40
2022-11-18T13:50:16.402Z,94.76
2022-11-18T13:51:18.774Z,94.82
2022-11-18T13:52:29.753Z,95.12
2022-11-18T13:53:38.404Z,95.09
2022-11-18T13:54:40.423Z,95.22
2022-11-18T13:55:53.583Z,95.85
2022-11-18T13:56:55.383Z,96.12
2022-11-18T13:58:05.163Z,96.22
2022-11-18T13:59:22.383Z,96.45
2022-11-18T14:00:26.026Z,96.06
2022-11-18T14:01:28.911Z,96.23
2022-11-18T14:02:30.818Z,96.20
2022-11-18T14:03:35.523Z,95.74
2022-11-18T14:04:37.857Z,96.03
2022-11-18T14:05:40.477Z,95.69
2022-11-18T14:06:42.489Z,96.04
2022-11-18T14:07:55.663Z,96.00
2022-11-18T14:09:04.895Z,95.81
2022-11-18T14:10:08.237Z,95.78
2022-11-18T14:11:10.585Z,95.81